sensor_id;sensor_type;location;lat;lon;timestamp;pressure;altitude;pressure_sealevel;temperature;humidity
78016;BME280;67223;51.102;5.882;2023-08-24T00:00:49;101731.25;;;19.25;100.00
78016;BME280;67223;51.102;5.882;2023-08-24T00:03:15;101723.81;;;19.27;100.00
78016;BME280;67223;51.102;5.882;2023-08-24T00:05:40;101717.22;;;19.29;100.00
78016;BME280;67223;51.102;5.882;2023-08-24T00:08:06;101711.97;;;19.28;100.00
78016;BME280;67223;51.102;5.882;2023-08-24T00:10:33;101702.91;;;19.37;100.00
78016;BME280;67223;51.102;5.882;2023-08-24T00:12:59;101725.09;;;19.15;100.00
78016;BME280;67223;51.102;5.882;2023-08-24T00:15:24;101711.66;;;19.31;100.00
78016;BME280;67223;51.102;5.882;2023-08-24T00:17:50;101705.16;;;19.24;100.00
78016;BME280;67223;51.102;5.882;2023-08-24T00:20:15;101698.38;;;19.20;100.00
78016;BME280;67223;51.102;5.882;2023-08-24T00:22:41;101702.28;;;19.17;100.00
78016;BME280;67223;51.102;5.882;2023-08-24T00:25:07;101693.59;;;19.14;100.00
78016;BME280;67223;51.102;5.882;2023-08-24T00:27:33;101700.19;;;19.11;100.00
78016;BME280;67223;51.102;5.882;2023-08-24T00:30:01;101691.81;;;18.97;100.00
78016;BME280;67223;51.102;5.882;2023-08-24T00:32:28;101696.84;;;18.91;100.00
78016;BME280;67223;51.102;5.882;2023-08-24T00:34:53;101693.94;;;18.93;100.00
78016;BME280;67223;51.102;5.882;2023-08-24T00:37:19;101692.06;;;18.85;100.00
78016;BME280;67223;51.102;5.882;2023-08-24T00:39:44;101689.34;;;18.85;100.00
78016;BME280;67223;51.102;5.882;2023-08-24T00:42:09;101689.09;;;18.97;100.00
78016;BME280;67223;51.102;5.882;2023-08-24T00:44:40;101698.22;;;18.96;100.00
78016;BME280;67223;51.102;5.882;2023-08-24T00:47:07;101700.88;;;18.87;100.00
78016;BME280;67223;51.102;5.882;2023-08-24T00:49:32;101695.47;;;18.87;100.00
78016;BME280;67223;51.102;5.882;2023-08-24T00:51:58;101692.06;;;18.85;100.00
78016;BME280;67223;51.102;5.882;2023-08-24T00:54:25;101688.44;;;18.77;100.00
78016;BME280;67223;51.102;5.882;2023-08-24T00:56:50;101687.75;;;18.75;100.00
78016;BME280;67223;51.102;5.882;2023-08-24T00:59:16;101695.72;;;18.76;100.00
78016;BME280;67223;51.102;5.882;2023-08-24T01:01:43;101692.53;;;18.63;100.00
78016;BME280;67223;51.102;5.882;2023-08-24T01:04:10;101690.88;;;18.62;100.00
78016;BME280;67223;51.102;5.882;2023-08-24T01:06:36;101680.72;;;18.64;100.00
78016;BME280;67223;51.102;5.882;2023-08-24T01:09:02;101685.34;;;18.72;100.00
78016;BME280;67223;51.102;5.882;2023-08-24T01:14:37;101683.78;;;18.69;100.00
78016;BME280;67223;51.102;5.882;2023-08-24T01:16:58;101690.38;;;18.67;100.00
78016;BME280;67223;51.102;5.882;2023-08-24T01:19:33;101684.88;;;18.59;100.00
78016;BME280;67223;51.102;5.882;2023-08-24T01:22:02;101681.19;;;18.60;100.00
78016;BME280;67223;51.102;5.882;2023-08-24T01:24:36;101671.13;;;18.52;100.00
78016;BME280;67223;51.102;5.882;2023-08-24T01:27:04;101669.97;;;18.55;100.00
78016;BME280;67223;51.102;5.882;2023-08-24T01:29:30;101664.78;;;18.43;100.00
78016;BME280;67223;51.102;5.882;2023-08-24T01:31:57;101657.84;;;18.59;100.00
78016;BME280;67223;51.102;5.882;2023-08-24T01:34:22;101654.59;;;18.55;100.00
78016;BME280;67223;51.102;5.882;2023-08-24T01:36:48;101647.19;;;18.57;100.00
78016;BME280;67223;51.102;5.882;2023-08-24T01:39:36;101644.38;;;18.49;100.00
78016;BME280;67223;51.102;5.882;2023-08-24T01:42:09;101637.63;;;18.53;100.00
78016;BME280;67223;51.102;5.882;2023-08-24T01:44:39;101643.38;;;18.50;100.00
78016;BME280;67223;51.102;5.882;2023-08-24T01:47:08;101647.00;;;18.59;100.00
78016;BME280;67223;51.102;5.882;2023-08-24T01:49:37;101645.38;;;18.48;100.00
78016;BME280;67223;51.102;5.882;2023-08-24T01:52:03;101648.44;;;18.53;100.00
78016;BME280;67223;51.102;5.882;2023-08-24T01:54:30;101658.44;;;18.35;100.00
78016;BME280;67223;51.102;5.882;2023-08-24T01:56:56;101670.06;;;18.27;100.00
78016;BME280;67223;51.102;5.882;2023-08-24T01:59:21;101671.97;;;18.35;100.00
78016;BME280;67223;51.102;5.882;2023-08-24T02:01:47;101673.34;;;18.39;100.00
78016;BME280;67223;51.102;5.882;2023-08-24T02:04:12;101678.00;;;18.29;100.00
78016;BME280;67223;51.102;5.882;2023-08-24T02:06:39;101679.84;;;18.46;100.00
78016;BME280;67223;51.102;5.882;2023-08-24T02:09:04;101676.09;;;18.57;100.00
78016;BME280;67223;51.102;5.882;2023-08-24T02:11:29;101668.03;;;18.47;100.00
78016;BME280;67223;51.102;5.882;2023-08-24T02:13:55;101657.78;;;18.33;100.00
78016;BME280;67223;51.102;5.882;2023-08-24T02:16:20;101647.16;;;18.39;100.00
78016;BME280;67223;51.102;5.882;2023-08-24T02:18:45;101645.47;;;18.38;100.00
78016;BME280;67223;51.102;5.882;2023-08-24T02:21:11;101646.25;;;18.31;100.00
78016;BME280;67223;51.102;5.882;2023-08-24T02:23:38;101650.44;;;18.43;100.00
78016;BME280;67223;51.102;5.882;2023-08-24T02:26:03;101639.53;;;18.35;100.00
78016;BME280;67223;51.102;5.882;2023-08-24T02:28:29;101639.13;;;18.47;100.00
78016;BME280;67223;51.102;5.882;2023-08-24T02:30:59;101642.50;;;18.49;100.00
78016;BME280;67223;51.102;5.882;2023-08-24T02:33:25;101648.78;;;18.50;100.00
78016;BME280;67223;51.102;5.882;2023-08-24T02:35:50;101649.81;;;18.67;100.00
78016;BME280;67223;51.102;5.882;2023-08-24T02:38:16;101649.34;;;18.54;100.00
78016;BME280;67223;51.102;5.882;2023-08-24T02:40:41;101643.22;;;18.69;100.00
78016;BME280;67223;51.102;5.882;2023-08-24T02:43:07;101641.22;;;18.71;100.00
78016;BME280;67223;51.102;5.882;2023-08-24T02:45:33;101637.13;;;18.67;100.00
78016;BME280;67223;51.102;5.882;2023-08-24T02:47:58;101638.25;;;18.82;100.00
78016;BME280;67223;51.102;5.882;2023-08-24T02:50:23;101634.84;;;18.80;100.00
78016;BME280;67223;51.102;5.882;2023-08-24T02:52:49;101636.84;;;18.78;100.00
78016;BME280;67223;51.102;5.882;2023-08-24T02:55:16;101648.75;;;18.85;100.00
78016;BME280;67223;51.102;5.882;2023-08-24T02:57:42;101660.53;;;18.76;100.00
78016;BME280;67223;51.102;5.882;2023-08-24T03:00:07;101667.75;;;18.93;100.00
78016;BME280;67223;51.102;5.882;2023-08-24T03:02:35;101675.97;;;18.84;100.00
78016;BME280;67223;51.102;5.882;2023-08-24T03:05:01;101692.75;;;18.87;100.00
78016;BME280;67223;51.102;5.882;2023-08-24T03:07:27;101700.22;;;18.93;100.00
78016;BME280;67223;51.102;5.882;2023-08-24T03:09:53;101696.31;;;19.14;100.00
78016;BME280;67223;51.102;5.882;2023-08-24T03:12:18;101692.56;;;19.07;100.00
78016;BME280;67223;51.102;5.882;2023-08-24T03:14:43;101686.63;;;18.85;100.00
78016;BME280;67223;51.102;5.882;2023-08-24T03:17:09;101693.13;;;18.92;100.00
78016;BME280;67223;51.102;5.882;2023-08-24T03:19:34;101694.13;;;18.91;100.00
78016;BME280;67223;51.102;5.882;2023-08-24T03:22:00;101680.53;;;18.83;100.00
78016;BME280;67223;51.102;5.882;2023-08-24T03:24:25;101681.28;;;18.68;100.00
78016;BME280;67223;51.102;5.882;2023-08-24T03:26:50;101676.53;;;18.87;100.00
78016;BME280;67223;51.102;5.882;2023-08-24T03:29:16;101666.88;;;18.67;100.00
78016;BME280;67223;51.102;5.882;2023-08-24T03:31:42;101647.56;;;18.62;100.00
78016;BME280;67223;51.102;5.882;2023-08-24T03:34:07;101645.06;;;18.69;100.00
78016;BME280;67223;51.102;5.882;2023-08-24T03:36:33;101629.47;;;18.63;100.00
78016;BME280;67223;51.102;5.882;2023-08-24T03:38:58;101622.75;;;18.31;100.00
78016;BME280;67223;51.102;5.882;2023-08-24T03:41:24;101639.84;;;18.32;100.00
78016;BME280;67223;51.102;5.882;2023-08-24T03:43:49;101626.63;;;18.29;100.00
78016;BME280;67223;51.102;5.882;2023-08-24T03:46:15;101634.19;;;18.25;100.00
78016;BME280;67223;51.102;5.882;2023-08-24T03:48:40;101641.69;;;18.14;100.00
78016;BME280;67223;51.102;5.882;2023-08-24T03:51:06;101633.75;;;18.12;100.00
78016;BME280;67223;51.102;5.882;2023-08-24T03:53:31;101611.28;;;18.12;100.00
78016;BME280;67223;51.102;5.882;2023-08-24T03:55:57;101604.69;;;18.14;100.00
78016;BME280;67223;51.102;5.882;2023-08-24T03:58:23;101581.44;;;18.03;100.00
78016;BME280;67223;51.102;5.882;2023-08-24T04:03:24;101554.66;;;17.92;100.00
78016;BME280;67223;51.102;5.882;2023-08-24T04:05:50;101545.16;;;17.88;100.00
78016;BME280;67223;51.102;5.882;2023-08-24T04:08:15;101539.44;;;17.91;100.00
78016;BME280;67223;51.102;5.882;2023-08-24T04:10:41;101530.72;;;17.97;100.00
78016;BME280;67223;51.102;5.882;2023-08-24T04:13:06;101529.63;;;18.08;100.00
78016;BME280;67223;51.102;5.882;2023-08-24T04:15:32;101526.75;;;18.10;100.00
78016;BME280;67223;51.102;5.882;2023-08-24T04:17:57;101543.22;;;17.98;100.00
78016;BME280;67223;51.102;5.882;2023-08-24T04:20:23;101558.75;;;17.96;100.00
78016;BME280;67223;51.102;5.882;2023-08-24T04:22:48;101558.50;;;17.90;100.00
78016;BME280;67223;51.102;5.882;2023-08-24T04:25:14;101548.69;;;17.89;100.00
78016;BME280;67223;51.102;5.882;2023-08-24T04:27:39;101555.72;;;18.17;100.00
78016;BME280;67223;51.102;5.882;2023-08-24T04:30:05;101539.69;;;17.98;100.00
78016;BME280;67223;51.102;5.882;2023-08-24T04:32:32;101552.72;;;18.02;100.00
78016;BME280;67223;51.102;5.882;2023-08-24T04:34:58;101554.50;;;18.12;100.00
78016;BME280;67223;51.102;5.882;2023-08-24T04:37:23;101553.72;;;18.01;100.00
78016;BME280;67223;51.102;5.882;2023-08-24T04:39:48;101553.13;;;18.08;100.00
78016;BME280;67223;51.102;5.882;2023-08-24T04:42:14;101550.84;;;18.21;100.00
78016;BME280;67223;51.102;5.882;2023-08-24T04:44:40;101556.81;;;18.06;100.00
78016;BME280;67223;51.102;5.882;2023-08-24T04:47:06;101543.53;;;18.13;100.00
78016;BME280;67223;51.102;5.882;2023-08-24T04:49:32;101537.66;;;18.18;100.00
78016;BME280;67223;51.102;5.882;2023-08-24T04:51:57;101537.28;;;18.13;100.00
78016;BME280;67223;51.102;5.882;2023-08-24T04:54:22;101540.50;;;18.60;100.00
78016;BME280;67223;51.102;5.882;2023-08-24T04:56:48;101532.38;;;18.85;100.00
78016;BME280;67223;51.102;5.882;2023-08-24T04:59:13;101517.78;;;18.78;100.00
78016;BME280;67223;51.102;5.882;2023-08-24T05:01:39;101509.34;;;19.82;100.00
78016;BME280;67223;51.102;5.882;2023-08-24T05:04:04;101493.88;;;20.94;100.00
78016;BME280;67223;51.102;5.882;2023-08-24T05:06:30;101484.38;;;21.60;100.00
78016;BME280;67223;51.102;5.882;2023-08-24T05:08:55;101490.28;;;21.40;100.00
78016;BME280;67223;51.102;5.882;2023-08-24T05:11:23;101478.47;;;22.02;100.00
78016;BME280;67223;51.102;5.882;2023-08-24T05:13:51;101473.16;;;22.38;100.00
78016;BME280;67223;51.102;5.882;2023-08-24T05:16:17;101472.34;;;21.77;100.00
78016;BME280;67223;51.102;5.882;2023-08-24T05:18:42;101473.06;;;20.78;100.00
78016;BME280;67223;51.102;5.882;2023-08-24T05:21:08;101488.47;;;19.74;100.00
78016;BME280;67223;51.102;5.882;2023-08-24T05:23:34;101495.19;;;19.38;100.00
78016;BME280;67223;51.102;5.882;2023-08-24T05:26:00;101492.38;;;19.13;100.00
78016;BME280;67223;51.102;5.882;2023-08-24T05:28:27;101496.59;;;18.66;100.00
78016;BME280;67223;51.102;5.882;2023-08-24T05:30:53;101504.38;;;19.03;100.00
78016;BME280;67223;51.102;5.882;2023-08-24T05:33:20;101514.41;;;19.85;100.00
78016;BME280;67223;51.102;5.882;2023-08-24T05:35:46;101491.56;;;19.21;100.00
78016;BME280;67223;51.102;5.882;2023-08-24T05:38:13;101488.03;;;19.28;100.00
78016;BME280;67223;51.102;5.882;2023-08-24T05:40:38;101495.28;;;19.28;100.00
78016;BME280;67223;51.102;5.882;2023-08-24T05:43:05;101499.97;;;19.02;100.00
78016;BME280;67223;51.102;5.882;2023-08-24T05:45:30;101502.50;;;18.69;100.00
78016;BME280;67223;51.102;5.882;2023-08-24T05:47:56;101503.47;;;18.60;100.00
78016;BME280;67223;51.102;5.882;2023-08-24T05:50:21;101504.41;;;18.51;100.00
78016;BME280;67223;51.102;5.882;2023-08-24T05:52:46;101487.19;;;18.78;100.00
78016;BME280;67223;51.102;5.882;2023-08-24T05:55:12;101482.38;;;19.80;100.00
78016;BME280;67223;51.102;5.882;2023-08-24T05:57:37;101476.44;;;20.41;100.00
78016;BME280;67223;51.102;5.882;2023-08-24T06:00:04;101455.19;;;20.53;100.00
78016;BME280;67223;51.102;5.882;2023-08-24T06:02:35;101435.97;;;20.71;100.00
78016;BME280;67223;51.102;5.882;2023-08-24T06:05:00;101425.66;;;20.58;100.00
78016;BME280;67223;51.102;5.882;2023-08-24T06:07:26;101434.81;;;20.65;100.00
78016;BME280;67223;51.102;5.882;2023-08-24T06:09:51;101434.03;;;20.40;100.00
78016;BME280;67223;51.102;5.882;2023-08-24T06:12:16;101433.88;;;20.42;100.00
78016;BME280;67223;51.102;5.882;2023-08-24T06:14:42;101427.97;;;20.06;100.00
78016;BME280;67223;51.102;5.882;2023-08-24T06:17:07;101436.94;;;20.14;100.00
78016;BME280;67223;51.102;5.882;2023-08-24T06:19:33;101427.63;;;20.17;100.00
78016;BME280;67223;51.102;5.882;2023-08-24T06:21:58;101411.97;;;20.43;100.00
78016;BME280;67223;51.102;5.882;2023-08-24T06:24:23;101403.47;;;20.54;100.00
78016;BME280;67223;51.102;5.882;2023-08-24T06:26:49;101408.28;;;21.14;100.00
78016;BME280;67223;51.102;5.882;2023-08-24T06:29:14;101395.50;;;20.84;100.00
78016;BME280;67223;51.102;5.882;2023-08-24T06:31:40;101390.72;;;20.94;100.00
78016;BME280;67223;51.102;5.882;2023-08-24T06:34:05;101388.00;;;20.94;100.00
78016;BME280;67223;51.102;5.882;2023-08-24T06:36:30;101386.91;;;21.03;100.00
78016;BME280;67223;51.102;5.882;2023-08-24T06:38:56;101389.78;;;21.32;100.00
78016;BME280;67223;51.102;5.882;2023-08-24T06:41:21;101380.63;;;21.33;100.00
78016;BME280;67223;51.102;5.882;2023-08-24T06:43:47;101386.09;;;21.48;100.00
78016;BME280;67223;51.102;5.882;2023-08-24T06:46:12;101375.75;;;21.52;100.00
78016;BME280;67223;51.102;5.882;2023-08-24T06:48:37;101365.56;;;22.35;100.00
78016;BME280;67223;51.102;5.882;2023-08-24T06:51:03;101362.72;;;22.14;100.00
78016;BME280;67223;51.102;5.882;2023-08-24T06:53:29;101352.75;;;22.80;100.00
78016;BME280;67223;51.102;5.882;2023-08-24T06:55:55;101351.75;;;22.51;100.00
78016;BME280;67223;51.102;5.882;2023-08-24T06:58:21;101358.81;;;22.82;100.00
78016;BME280;67223;51.102;5.882;2023-08-24T07:00:46;101354.53;;;23.30;100.00
78016;BME280;67223;51.102;5.882;2023-08-24T07:03:12;101353.31;;;23.53;100.00
78016;BME280;67223;51.102;5.882;2023-08-24T07:05:37;101354.13;;;23.33;100.00
78016;BME280;67223;51.102;5.882;2023-08-24T07:08:03;101346.91;;;23.68;100.00
78016;BME280;67223;51.102;5.882;2023-08-24T07:10:28;101347.34;;;23.71;100.00
78016;BME280;67223;51.102;5.882;2023-08-24T07:12:54;101345.84;;;23.90;100.00
78016;BME280;67223;51.102;5.882;2023-08-24T07:15:19;101335.19;;;24.01;100.00
78016;BME280;67223;51.102;5.882;2023-08-24T07:17:45;101338.28;;;24.20;100.00
78016;BME280;67223;51.102;5.882;2023-08-24T07:20:10;101331.84;;;24.34;100.00
78016;BME280;67223;51.102;5.882;2023-08-24T07:22:39;101338.28;;;24.20;100.00
78016;BME280;67223;51.102;5.882;2023-08-24T07:25:05;101343.19;;;24.03;100.00
78016;BME280;67223;51.102;5.882;2023-08-24T07:27:34;101342.81;;;24.13;100.00
78016;BME280;67223;51.102;5.882;2023-08-24T07:30:01;101337.03;;;24.22;100.00
78016;BME280;67223;51.102;5.882;2023-08-24T07:32:31;101336.19;;;23.66;100.00
78016;BME280;67223;51.102;5.882;2023-08-24T07:34:56;101336.31;;;24.14;100.00
78016;BME280;67223;51.102;5.882;2023-08-24T07:37:23;101355.00;;;24.10;100.00
78016;BME280;67223;51.102;5.882;2023-08-24T07:39:49;101360.41;;;24.38;100.00
78016;BME280;67223;51.102;5.882;2023-08-24T07:42:14;101350.66;;;24.63;100.00
78016;BME280;67223;51.102;5.882;2023-08-24T07:44:40;101360.16;;;24.74;100.00
78016;BME280;67223;51.102;5.882;2023-08-24T07:47:05;101367.13;;;24.83;100.00
78016;BME280;67223;51.102;5.882;2023-08-24T07:49:30;101357.00;;;24.70;100.00
78016;BME280;67223;51.102;5.882;2023-08-24T07:51:56;101361.53;;;24.98;100.00
78016;BME280;67223;51.102;5.882;2023-08-24T07:54:23;101345.31;;;24.96;100.00
78016;BME280;67223;51.102;5.882;2023-08-24T07:56:50;101333.84;;;25.40;100.00
78016;BME280;67223;51.102;5.882;2023-08-24T07:59:15;101315.31;;;25.29;100.00
78016;BME280;67223;51.102;5.882;2023-08-24T08:01:41;101310.69;;;25.36;100.00
78016;BME280;67223;51.102;5.882;2023-08-24T08:04:06;101307.75;;;25.44;100.00
78016;BME280;67223;51.102;5.882;2023-08-24T08:06:32;101309.41;;;25.52;100.00
78016;BME280;67223;51.102;5.882;2023-08-24T08:08:57;101292.16;;;25.51;100.00
78016;BME280;67223;51.102;5.882;2023-08-24T08:11:23;101295.16;;;25.69;100.00
78016;BME280;67223;51.102;5.882;2023-08-24T08:13:49;101289.41;;;25.91;100.00
78016;BME280;67223;51.102;5.882;2023-08-24T08:16:14;101282.28;;;25.83;100.00
78016;BME280;67223;51.102;5.882;2023-08-24T08:18:39;101289.44;;;25.71;100.00
78016;BME280;67223;51.102;5.882;2023-08-24T08:21:09;101300.38;;;25.84;100.00
78016;BME280;67223;51.102;5.882;2023-08-24T08:23:36;101310.44;;;26.10;100.00
78016;BME280;67223;51.102;5.882;2023-08-24T08:26:02;101305.16;;;26.15;100.00
78016;BME280;67223;51.102;5.882;2023-08-24T08:28:28;101310.19;;;26.11;100.00
78016;BME280;67223;51.102;5.882;2023-08-24T08:30:53;101298.28;;;25.80;100.00
78016;BME280;67223;51.102;5.882;2023-08-24T08:33:19;101303.97;;;25.85;100.00
78016;BME280;67223;51.102;5.882;2023-08-24T08:35:47;101294.91;;;25.78;100.00
78016;BME280;67223;51.102;5.882;2023-08-24T08:38:12;101303.06;;;26.04;100.00
78016;BME280;67223;51.102;5.882;2023-08-24T08:40:37;101286.91;;;25.89;100.00
78016;BME280;67223;51.102;5.882;2023-08-24T08:43:03;101285.69;;;26.36;100.00
78016;BME280;67223;51.102;5.882;2023-08-24T08:45:29;101273.34;;;26.14;100.00
78016;BME280;67223;51.102;5.882;2023-08-24T08:48:01;101250.03;;;25.92;100.00
78016;BME280;67223;51.102;5.882;2023-08-24T08:50:29;101258.13;;;26.31;100.00
78016;BME280;67223;51.102;5.882;2023-08-24T08:52:56;101253.75;;;26.24;100.00
78016;BME280;67223;51.102;5.882;2023-08-24T08:55:23;101239.06;;;25.98;100.00
78016;BME280;67223;51.102;5.882;2023-08-24T08:57:49;101235.16;;;26.32;100.00
78016;BME280;67223;51.102;5.882;2023-08-24T09:00:18;101236.78;;;26.46;100.00
78016;BME280;67223;51.102;5.882;2023-08-24T09:02:45;101219.59;;;26.26;100.00
78016;BME280;67223;51.102;5.882;2023-08-24T09:05:11;101225.69;;;26.35;100.00
78016;BME280;67223;51.102;5.882;2023-08-24T09:07:39;101226.56;;;26.60;100.00
78016;BME280;67223;51.102;5.882;2023-08-24T09:10:07;101219.97;;;26.36;100.00
78016;BME280;67223;51.102;5.882;2023-08-24T09:12:33;101207.19;;;26.62;100.00
78016;BME280;67223;51.102;5.882;2023-08-24T09:14:59;101192.50;;;26.81;100.00
78016;BME280;67223;51.102;5.882;2023-08-24T09:17:25;101191.81;;;26.92;100.00
78016;BME280;67223;51.102;5.882;2023-08-24T09:19:57;101183.16;;;26.64;100.00
78016;BME280;67223;51.102;5.882;2023-08-24T09:22:22;101192.25;;;26.58;100.00
78016;BME280;67223;51.102;5.882;2023-08-24T09:24:48;101208.25;;;26.92;100.00
78016;BME280;67223;51.102;5.882;2023-08-24T09:27:16;101194.16;;;27.13;100.00
78016;BME280;67223;51.102;5.882;2023-08-24T09:29:42;101194.16;;;27.13;100.00
78016;BME280;67223;51.102;5.882;2023-08-24T09:32:08;101208.81;;;27.01;100.00
78016;BME280;67223;51.102;5.882;2023-08-24T09:34:36;101211.25;;;26.84;100.00
78016;BME280;67223;51.102;5.882;2023-08-24T09:37:02;101228.63;;;27.03;100.00
78016;BME280;67223;51.102;5.882;2023-08-24T09:39:29;101232.97;;;27.10;100.00
78016;BME280;67223;51.102;5.882;2023-08-24T09:42:00;101238.47;;;27.10;100.00
78016;BME280;67223;51.102;5.882;2023-08-24T09:44:29;101233.44;;;27.07;100.00
78016;BME280;67223;51.102;5.882;2023-08-24T09:46:54;101246.97;;;27.27;100.00
78016;BME280;67223;51.102;5.882;2023-08-24T09:49:20;101228.34;;;27.11;100.00
78016;BME280;67223;51.102;5.882;2023-08-24T09:51:47;101238.41;;;27.17;100.00
78016;BME280;67223;51.102;5.882;2023-08-24T09:54:15;101234.84;;;27.16;100.00
78016;BME280;67223;51.102;5.882;2023-08-24T09:56:42;101230.88;;;27.12;100.00
78016;BME280;67223;51.102;5.882;2023-08-24T09:59:11;101231.84;;;27.00;100.00
78016;BME280;67223;51.102;5.882;2023-08-24T10:01:44;101224.31;;;26.88;100.00
78016;BME280;67223;51.102;5.882;2023-08-24T10:04:13;101239.94;;;27.37;100.00
78016;BME280;67223;51.102;5.882;2023-08-24T10:06:39;101250.34;;;27.04;100.00
78016;BME280;67223;51.102;5.882;2023-08-24T10:09:08;101250.44;;;27.40;100.00
78016;BME280;67223;51.102;5.882;2023-08-24T10:11:40;101252.47;;;27.02;100.00
78016;BME280;67223;51.102;5.882;2023-08-24T10:14:16;101266.00;;;26.97;100.00
78016;BME280;67223;51.102;5.882;2023-08-24T10:16:44;101265.88;;;26.79;100.00
78016;BME280;67223;51.102;5.882;2023-08-24T10:19:10;101261.84;;;26.88;100.00
78016;BME280;67223;51.102;5.882;2023-08-24T10:21:37;101252.63;;;27.07;100.00
78016;BME280;67223;51.102;5.882;2023-08-24T10:24:03;101241.50;;;27.27;100.00
78016;BME280;67223;51.102;5.882;2023-08-24T10:26:28;101242.03;;;27.35;100.00
78016;BME280;67223;51.102;5.882;2023-08-24T10:28:54;101242.50;;;27.08;100.00
78016;BME280;67223;51.102;5.882;2023-08-24T10:31:21;101242.84;;;26.93;100.00
78016;BME280;67223;51.102;5.882;2023-08-24T10:33:47;101259.47;;;26.98;100.00
78016;BME280;67223;51.102;5.882;2023-08-24T10:36:14;101260.34;;;26.92;100.00
78016;BME280;67223;51.102;5.882;2023-08-24T10:38:41;101284.13;;;26.98;100.00
78016;BME280;67223;51.102;5.882;2023-08-24T10:41:07;101278.88;;;26.52;100.00
78016;BME280;67223;51.102;5.882;2023-08-24T10:43:40;101320.94;;;26.71;100.00
78016;BME280;67223;51.102;5.882;2023-08-24T10:46:13;101351.50;;;26.74;100.00
78016;BME280;67223;51.102;5.882;2023-08-24T10:53:57;101351.88;;;26.20;100.00
78016;BME280;67223;51.102;5.882;2023-08-24T10:56:52;101371.06;;;26.27;100.00
78016;BME280;67223;51.102;5.882;2023-08-24T10:59:19;101350.66;;;26.03;100.00
78016;BME280;67223;51.102;5.882;2023-08-24T11:01:57;101367.94;;;25.84;100.00
78016;BME280;67223;51.102;5.882;2023-08-24T11:04:23;101388.56;;;25.93;100.00
78016;BME280;67223;51.102;5.882;2023-08-24T11:06:58;101378.88;;;25.70;100.00
78016;BME280;67223;51.102;5.882;2023-08-24T11:09:45;101381.63;;;25.70;100.00
78016;BME280;67223;51.102;5.882;2023-08-24T11:12:14;101375.09;;;25.71;100.00
78016;BME280;67223;51.102;5.882;2023-08-24T11:14:52;101368.81;;;25.64;100.00
78016;BME280;67223;51.102;5.882;2023-08-24T11:17:24;101364.78;;;25.60;100.00
78016;BME280;67223;51.102;5.882;2023-08-24T11:19:51;101359.09;;;25.62;100.00
78016;BME280;67223;51.102;5.882;2023-08-24T11:22:17;101364.59;;;25.55;100.00
78016;BME280;67223;51.102;5.882;2023-08-24T11:24:43;101359.50;;;25.65;100.00
78016;BME280;67223;51.102;5.882;2023-08-24T11:27:09;101353.66;;;25.68;100.00
78016;BME280;67223;51.102;5.882;2023-08-24T11:29:34;101343.09;;;25.65;100.00
78016;BME280;67223;51.102;5.882;2023-08-24T11:32:00;101335.75;;;25.59;100.00
78016;BME280;67223;51.102;5.882;2023-08-24T11:34:25;101337.22;;;25.68;100.00
78016;BME280;67223;51.102;5.882;2023-08-24T11:36:51;101370.41;;;25.33;100.00
78016;BME280;67223;51.102;5.882;2023-08-24T11:39:21;101348.34;;;25.41;100.00
78016;BME280;67223;51.102;5.882;2023-08-24T11:42:00;101354.41;;;25.10;100.00
78016;BME280;67223;51.102;5.882;2023-08-24T11:44:27;101353.53;;;24.90;100.00
78016;BME280;67223;51.102;5.882;2023-08-24T11:46:52;101355.53;;;24.27;100.00
78016;BME280;67223;51.102;5.882;2023-08-24T11:49:18;101342.84;;;24.54;100.00
78016;BME280;67223;51.102;5.882;2023-08-24T11:51:44;101347.91;;;23.88;100.00
78016;BME280;67223;51.102;5.882;2023-08-24T11:54:09;101344.81;;;24.25;100.00
78016;BME280;67223;51.102;5.882;2023-08-24T11:56:44;101308.97;;;24.07;100.00
78016;BME280;67223;51.102;5.882;2023-08-24T11:59:16;101309.53;;;24.24;100.00
78016;BME280;67223;51.102;5.882;2023-08-24T12:01:42;101295.47;;;24.27;100.00
78016;BME280;67223;51.102;5.882;2023-08-24T12:04:08;101283.94;;;24.25;100.00
78016;BME280;67223;51.102;5.882;2023-08-24T12:06:33;101277.63;;;24.24;100.00
78016;BME280;67223;51.102;5.882;2023-08-24T12:08:59;101269.63;;;24.23;100.00
78016;BME280;67223;51.102;5.882;2023-08-24T12:11:24;101268.59;;;24.24;100.00
78016;BME280;67223;51.102;5.882;2023-08-24T12:13:54;101257.03;;;24.22;100.00
78016;BME280;67223;51.102;5.882;2023-08-24T12:16:21;101249.63;;;24.16;100.00
78016;BME280;67223;51.102;5.882;2023-08-24T12:18:52;101244.50;;;24.47;100.00
78016;BME280;67223;51.102;5.882;2023-08-24T12:21:18;101235.44;;;24.33;100.00
78016;BME280;67223;51.102;5.882;2023-08-24T12:23:45;101224.34;;;24.48;100.00
78016;BME280;67223;51.102;5.882;2023-08-24T12:26:19;101218.69;;;24.56;100.00
78016;BME280;67223;51.102;5.882;2023-08-24T12:28:49;101204.66;;;24.59;100.00
78016;BME280;67223;51.102;5.882;2023-08-24T12:31:16;101217.69;;;24.64;100.00
78016;BME280;67223;51.102;5.882;2023-08-24T12:33:42;101207.59;;;24.64;100.00
78016;BME280;67223;51.102;5.882;2023-08-24T12:36:08;101211.81;;;24.86;100.00
78016;BME280;67223;51.102;5.882;2023-08-24T12:38:33;101227.22;;;24.94;100.00
78016;BME280;67223;51.102;5.882;2023-08-24T12:41:00;101215.66;;;24.99;100.00
78016;BME280;67223;51.102;5.882;2023-08-24T12:43:26;101226.47;;;24.66;100.00
78016;BME280;67223;51.102;5.882;2023-08-24T12:45:51;101233.44;;;24.81;100.00
78016;BME280;67223;51.102;5.882;2023-08-24T12:48:17;101263.06;;;24.65;100.00